sensor_id;sensor_type;location;lat;lon;timestamp;temperature;humidity
3198;DHT22;1611;49.394;11.136;2023-03-04T00:02:11;1.10;58.90
3198;DHT22;1611;49.394;11.136;2023-03-04T00:04:38;1.20;58.90
3198;DHT22;1611;49.394;11.136;2023-03-04T00:07:05;1.10;58.90
3198;DHT22;1611;49.394;11.136;2023-03-04T00:09:33;1.10;59.00
3198;DHT22;1611;49.394;11.136;2023-03-04T00:11:59;1.00;59.20
3198;DHT22;1611;49.394;11.136;2023-03-04T00:14:26;1.00;59.70
3198;DHT22;1611;49.394;11.136;2023-03-04T00:16:53;0.90;59.90
3198;DHT22;1611;49.394;11.136;2023-03-04T00:19:20;0.90;60.10
3198;DHT22;1611;49.394;11.136;2023-03-04T00:21:46;0.90;60.30
3198;DHT22;1611;49.394;11.136;2023-03-04T00:24:13;0.90;60.50
3198;DHT22;1611;49.394;11.136;2023-03-04T00:26:41;0.90;60.40
3198;DHT22;1611;49.394;11.136;2023-03-04T00:29:08;0.90;60.50
3198;DHT22;1611;49.394;11.136;2023-03-04T00:31:35;0.80;60.50
3198;DHT22;1611;49.394;11.136;2023-03-04T00:34:01;0.80;60.80
3198;DHT22;1611;49.394;11.136;2023-03-04T00:36:28;0.80;61.00
3198;DHT22;1611;49.394;11.136;2023-03-04T00:38:55;0.80;61.10
3198;DHT22;1611;49.394;11.136;2023-03-04T00:41:22;0.70;61.10
3198;DHT22;1611;49.394;11.136;2023-03-04T00:43:50;0.80;61.20
3198;DHT22;1611;49.394;11.136;2023-03-04T00:46:17;0.80;61.20
3198;DHT22;1611;49.394;11.136;2023-03-04T00:48:44;0.80;61.20
3198;DHT22;1611;49.394;11.136;2023-03-04T00:51:10;0.80;61.00
3198;DHT22;1611;49.394;11.136;2023-03-04T00:53:37;0.80;61.00
3198;DHT22;1611;49.394;11.136;2023-03-04T00:56:04;0.80;60.80
3198;DHT22;1611;49.394;11.136;2023-03-04T00:58:31;0.70;61.10
3198;DHT22;1611;49.394;11.136;2023-03-04T01:00:59;0.60;61.30
3198;DHT22;1611;49.394;11.136;2023-03-04T01:03:26;0.60;61.60
3198;DHT22;1611;49.394;11.136;2023-03-04T01:05:55;0.50;61.70
3198;DHT22;1611;49.394;11.136;2023-03-04T01:08:22;0.60;61.70
3198;DHT22;1611;49.394;11.136;2023-03-04T01:10:49;0.40;61.90
3198;DHT22;1611;49.394;11.136;2023-03-04T01:13:16;0.50;62.10
3198;DHT22;1611;49.394;11.136;2023-03-04T01:15:42;0.40;62.30
3198;DHT22;1611;49.394;11.136;2023-03-04T01:18:11;0.40;62.30
3198;DHT22;1611;49.394;11.136;2023-03-04T01:20:37;0.40;62.20
3198;DHT22;1611;49.394;11.136;2023-03-04T01:23:04;0.30;62.60
3198;DHT22;1611;49.394;11.136;2023-03-04T01:25:32;0.40;62.70
3198;DHT22;1611;49.394;11.136;2023-03-04T01:27:58;0.40;62.40
3198;DHT22;1611;49.394;11.136;2023-03-04T01:30:25;0.40;62.20
3198;DHT22;1611;49.394;11.136;2023-03-04T01:32:52;0.50;62.30
3198;DHT22;1611;49.394;11.136;2023-03-04T01:35:20;0.40;62.00
3198;DHT22;1611;49.394;11.136;2023-03-04T01:37:47;0.30;62.30
3198;DHT22;1611;49.394;11.136;2023-03-04T01:40:14;0.30;62.40
3198;DHT22;1611;49.394;11.136;2023-03-04T01:42:41;0.30;62.50
3198;DHT22;1611;49.394;11.136;2023-03-04T01:45:10;0.20;62.20
3198;DHT22;1611;49.394;11.136;2023-03-04T01:47:38;0.30;62.40
3198;DHT22;1611;49.394;11.136;2023-03-04T01:50:12;0.30;62.40
3198;DHT22;1611;49.394;11.136;2023-03-04T01:52:43;0.30;62.40
3198;DHT22;1611;49.394;11.136;2023-03-04T01:55:15;0.30;62.70
3198;DHT22;1611;49.394;11.136;2023-03-04T01:57:42;0.30;62.80
3198;DHT22;1611;49.394;11.136;2023-03-04T02:00:17;0.20;62.60
3198;DHT22;1611;49.394;11.136;2023-03-04T02:02:44;0.30;62.40
3198;DHT22;1611;49.394;11.136;2023-03-04T02:05:11;0.20;62.60
3198;DHT22;1611;49.394;11.136;2023-03-04T02:07:38;0.20;62.50
3198;DHT22;1611;49.394;11.136;2023-03-04T02:10:08;0.20;62.50
3198;DHT22;1611;49.394;11.136;2023-03-04T02:12:35;0.20;62.60
3198;DHT22;1611;49.394;11.136;2023-03-04T02:15:02;0.20;62.50
3198;DHT22;1611;49.394;11.136;2023-03-04T02:17:30;0.20;62.20
3198;DHT22;1611;49.394;11.136;2023-03-04T02:20:02;0.10;62.30
3198;DHT22;1611;49.394;11.136;2023-03-04T02:22:37;0.20;62.30
3198;DHT22;1611;49.394;11.136;2023-03-04T02:25:10;0.10;62.30
3198;DHT22;1611;49.394;11.136;2023-03-04T02:27:40;0.10;62.30
3198;DHT22;1611;49.394;11.136;2023-03-04T02:30:08;0.10;62.40
3198;DHT22;1611;49.394;11.136;2023-03-04T02:32:35;0.10;62.40
3198;DHT22;1611;49.394;11.136;2023-03-04T02:35:03;0.10;62.60
3198;DHT22;1611;49.394;11.136;2023-03-04T02:37:30;0.10;62.50
3198;DHT22;1611;49.394;11.136;2023-03-04T02:39:57;0.10;62.10
3198;DHT22;1611;49.394;11.136;2023-03-04T02:42:24;0.00;62.10
3198;DHT22;1611;49.394;11.136;2023-03-04T02:45:00;0.00;62.00
3198;DHT22;1611;49.394;11.136;2023-03-04T02:47:26;0.10;62.00
3198;DHT22;1611;49.394;11.136;2023-03-04T02:49:53;0.00;62.00
3198;DHT22;1611;49.394;11.136;2023-03-04T02:52:22;0.00;62.50
3198;DHT22;1611;49.394;11.136;2023-03-04T02:54:49;0.00;62.50
3198;DHT22;1611;49.394;11.136;2023-03-04T02:57:16;-0.10;62.30
3198;DHT22;1611;49.394;11.136;2023-03-04T02:59:43;0.00;62.40
3198;DHT22;1611;49.394;11.136;2023-03-04T03:02:11;-0.10;62.40
3198;DHT22;1611;49.394;11.136;2023-03-04T03:04:38;-0.10;62.50
3198;DHT22;1611;49.394;11.136;2023-03-04T03:07:06;-0.10;62.30
3198;DHT22;1611;49.394;11.136;2023-03-04T03:09:32;-0.20;62.10
3198;DHT22;1611;49.394;11.136;2023-03-04T03:11:59;-0.20;62.40
3198;DHT22;1611;49.394;11.136;2023-03-04T03:14:26;-0.20;62.30
3198;DHT22;1611;49.394;11.136;2023-03-04T03:16:53;-0.20;62.40
3198;DHT22;1611;49.394;11.136;2023-03-04T03:19:21;-0.20;62.30
3198;DHT22;1611;49.394;11.136;2023-03-04T03:21:47;-0.20;62.30
3198;DHT22;1611;49.394;11.136;2023-03-04T03:24:14;-0.20;62.00
3198;DHT22;1611;49.394;11.136;2023-03-04T03:26:41;-0.20;62.00
3198;DHT22;1611;49.394;11.136;2023-03-04T03:29:08;-0.20;62.00
3198;DHT22;1611;49.394;11.136;2023-03-04T03:31:34;-0.20;62.00
3198;DHT22;1611;49.394;11.136;2023-03-04T03:34:01;-0.20;62.30
3198;DHT22;1611;49.394;11.136;2023-03-04T03:36:29;-0.20;62.40
3198;DHT22;1611;49.394;11.136;2023-03-04T03:38:56;-0.20;62.70
3198;DHT22;1611;49.394;11.136;2023-03-04T03:41:23;-0.30;62.60
3198;DHT22;1611;49.394;11.136;2023-03-04T03:43:49;-0.40;62.60
3198;DHT22;1611;49.394;11.136;2023-03-04T03:46:16;-0.30;62.70
3198;DHT22;1611;49.394;11.136;2023-03-04T03:48:43;-0.30;62.80
3198;DHT22;1611;49.394;11.136;2023-03-04T03:51:10;-0.30;62.60
3198;DHT22;1611;49.394;11.136;2023-03-04T03:53:38;-0.40;63.00
3198;DHT22;1611;49.394;11.136;2023-03-04T03:56:05;-0.30;63.40
3198;DHT22;1611;49.394;11.136;2023-03-04T03:58:32;-0.30;63.40
3198;DHT22;1611;49.394;11.136;2023-03-04T04:00:59;-0.40;63.40
3198;DHT22;1611;49.394;11.136;2023-03-04T04:03:26;-0.50;64.00
3198;DHT22;1611;49.394;11.136;2023-03-04T04:05:52;-0.50;64.30
3198;DHT22;1611;49.394;11.136;2023-03-04T04:08:19;-0.50;64.40
3198;DHT22;1611;49.394;11.136;2023-03-04T04:10:47;-0.50;65.00
3198;DHT22;1611;49.394;11.136;2023-03-04T04:13:14;-0.60;65.20
3198;DHT22;1611;49.394;11.136;2023-03-04T04:15:41;-0.60;65.70
3198;DHT22;1611;49.394;11.136;2023-03-04T04:18:07;-0.60;66.30
3198;DHT22;1611;49.394;11.136;2023-03-04T04:20:34;-0.60;66.40
3198;DHT22;1611;49.394;11.136;2023-03-04T04:23:02;-0.60;66.50
3198;DHT22;1611;49.394;11.136;2023-03-04T04:25:29;-0.60;66.60
3198;DHT22;1611;49.394;11.136;2023-03-04T04:27:57;-0.50;66.80
3198;DHT22;1611;49.394;11.136;2023-03-04T04:30:24;-0.40;66.50
3198;DHT22;1611;49.394;11.136;2023-03-04T04:32:51;-0.50;66.60
3198;DHT22;1611;49.394;11.136;2023-03-04T04:35:18;-0.60;66.50
3198;DHT22;1611;49.394;11.136;2023-03-04T04:37:45;-0.70;67.30
3198;DHT22;1611;49.394;11.136;2023-03-04T04:40:12;-0.60;67.40
3198;DHT22;1611;49.394;11.136;2023-03-04T04:42:39;-0.70;67.50
3198;DHT22;1611;49.394;11.136;2023-03-04T04:45:09;-0.70;68.00
3198;DHT22;1611;49.394;11.136;2023-03-04T04:47:35;-0.70;68.60
3198;DHT22;1611;49.394;11.136;2023-03-04T04:50:02;-0.70;68.30
3198;DHT22;1611;49.394;11.136;2023-03-04T04:52:29;-0.70;68.40
3198;DHT22;1611;49.394;11.136;2023-03-04T04:54:56;-0.60;68.30
3198;DHT22;1611;49.394;11.136;2023-03-04T04:57:23;-0.60;68.40
3198;DHT22;1611;49.394;11.136;2023-03-04T04:59:50;-0.60;68.40
3198;DHT22;1611;49.394;11.136;2023-03-04T05:02:18;-0.60;68.40
3198;DHT22;1611;49.394;11.136;2023-03-04T05:04:45;-0.50;68.50
3198;DHT22;1611;49.394;11.136;2023-03-04T05:07:11;-0.40;68.20
3198;DHT22;1611;49.394;11.136;2023-03-04T05:09:38;-0.50;68.60
3198;DHT22;1611;49.394;11.136;2023-03-04T05:12:05;-0.50;69.00
3198;DHT22;1611;49.394;11.136;2023-03-04T05:14:31;-0.40;69.00
3198;DHT22;1611;49.394;11.136;2023-03-04T05:16:58;-0.30;68.90
3198;DHT22;1611;49.394;11.136;2023-03-04T05:19:26;-0.20;68.50
3198;DHT22;1611;49.394;11.136;2023-03-04T05:21:53;-0.20;68.20
3198;DHT22;1611;49.394;11.136;2023-03-04T05:24:20;-0.20;67.90
3198;DHT22;1611;49.394;11.136;2023-03-04T05:26:47;-0.20;68.10
3198;DHT22;1611;49.394;11.136;2023-03-04T05:29:13;-0.30;68.70
3198;DHT22;1611;49.394;11.136;2023-03-04T05:31:40;-0.30;69.70
3198;DHT22;1611;49.394;11.136;2023-03-04T05:34:07;-0.30;69.70
3198;DHT22;1611;49.394;11.136;2023-03-04T05:36:35;-0.10;69.90
3198;DHT22;1611;49.394;11.136;2023-03-04T05:39:02;-0.20;69.70
3198;DHT22;1611;49.394;11.136;2023-03-04T05:41:29;-0.20;69.90
3198;DHT22;1611;49.394;11.136;2023-03-04T05:43:55;-0.10;70.10
3198;DHT22;1611;49.394;11.136;2023-03-04T05:46:22;-0.10;70.00
3198;DHT22;1611;49.394;11.136;2023-03-04T05:48:50;-0.10;70.30
3198;DHT22;1611;49.394;11.136;2023-03-04T05:51:17;0.00;70.00
3198;DHT22;1611;49.394;11.136;2023-03-04T05:53:46;-0.10;70.00
3198;DHT22;1611;49.394;11.136;2023-03-04T05:56:14;0.00;70.10
3198;DHT22;1611;49.394;11.136;2023-03-04T05:58:41;0.00;69.60
3198;DHT22;1611;49.394;11.136;2023-03-04T06:01:08;0.10;69.30
3198;DHT22;1611;49.394;11.136;2023-03-04T06:03:35;0.10;69.10
3198;DHT22;1611;49.394;11.136;2023-03-04T06:06:02;0.10;69.30
3198;DHT22;1611;49.394;11.136;2023-03-04T06:08:29;0.10;69.30
3198;DHT22;1611;49.394;11.136;2023-03-04T06:10:57;0.20;69.00
3198;DHT22;1611;49.394;11.136;2023-03-04T06:13:24;0.10;68.80
3198;DHT22;1611;49.394;11.136;2023-03-04T06:15:53;0.20;68.40
3198;DHT22;1611;49.394;11.136;2023-03-04T06:18:20;0.30;68.00
3198;DHT22;1611;49.394;11.136;2023-03-04T06:20:47;0.20;67.80
3198;DHT22;1611;49.394;11.136;2023-03-04T06:23:14;0.30;68.20
3198;DHT22;1611;49.394;11.136;2023-03-04T06:25:41;0.20;67.90
3198;DHT22;1611;49.394;11.136;2023-03-04T06:28:09;0.30;67.90
3198;DHT22;1611;49.394;11.136;2023-03-04T06:30:36;0.30;67.50
3198;DHT22;1611;49.394;11.136;2023-03-04T06:33:03;0.30;67.60
3198;DHT22;1611;49.394;11.136;2023-03-04T06:35:29;0.20;67.20
3198;DHT22;1611;49.394;11.136;2023-03-04T06:37:56;0.10;68.20
3198;DHT22;1611;49.394;11.136;2023-03-04T06:40:23;0.30;68.40
3198;DHT22;1611;49.394;11.136;2023-03-04T06:42:49;0.20;67.90
3198;DHT22;1611;49.394;11.136;2023-03-04T06:45:18;0.20;67.80
3198;DHT22;1611;49.394;11.136;2023-03-04T06:47:44;0.30;67.90
3198;DHT22;1611;49.394;11.136;2023-03-04T06:50:12;0.30;67.60
3198;DHT22;1611;49.394;11.136;2023-03-04T06:52:39;0.20;68.10
3198;DHT22;1611;49.394;11.136;2023-03-04T06:55:07;0.10;68.30
3198;DHT22;1611;49.394;11.136;2023-03-04T06:57:34;0.20;68.90
3198;DHT22;1611;49.394;11.136;2023-03-04T07:00:01;0.30;68.70
3198;DHT22;1611;49.394;11.136;2023-03-04T07:02:29;0.20;68.30
3198;DHT22;1611;49.394;11.136;2023-03-04T07:04:56;0.30;68.30
3198;DHT22;1611;49.394;11.136;2023-03-04T07:07:22;0.40;68.50
3198;DHT22;1611;49.394;11.136;2023-03-04T07:09:50;0.50;67.70
3198;DHT22;1611;49.394;11.136;2023-03-04T07:12:17;0.50;67.20
3198;DHT22;1611;49.394;11.136;2023-03-04T07:14:44;0.50;67.40
3198;DHT22;1611;49.394;11.136;2023-03-04T07:17:11;0.60;67.30
3198;DHT22;1611;49.394;11.136;2023-03-04T07:19:39;0.70;66.70
3198;DHT22;1611;49.394;11.136;2023-03-04T07:22:06;0.80;66.10
3198;DHT22;1611;49.394;11.136;2023-03-04T07:24:33;0.70;65.70
3198;DHT22;1611;49.394;11.136;2023-03-04T07:26:59;0.90;65.70
3198;DHT22;1611;49.394;11.136;2023-03-04T07:29:26;0.90;65.30
3198;DHT22;1611;49.394;11.136;2023-03-04T07:31:53;0.90;65.00
3198;DHT22;1611;49.394;11.136;2023-03-04T07:34:20;1.00;64.30
3198;DHT22;1611;49.394;11.136;2023-03-04T07:36:48;1.10;64.20
3198;DHT22;1611;49.394;11.136;2023-03-04T07:39:15;1.10;64.10
3198;DHT22;1611;49.394;11.136;2023-03-04T07:41:42;1.10;64.10
3198;DHT22;1611;49.394;11.136;2023-03-04T07:44:10;1.20;63.70
3198;DHT22;1611;49.394;11.136;2023-03-04T07:46:37;1.30;63.70
3198;DHT22;1611;49.394;11.136;2023-03-04T07:49:04;1.30;63.30
3198;DHT22;1611;49.394;11.136;2023-03-04T07:51:31;1.30;63.10
3198;DHT22;1611;49.394;11.136;2023-03-04T07:54:01;1.30;62.50
3198;DHT22;1611;49.394;11.136;2023-03-04T07:56:29;1.40;62.40
3198;DHT22;1611;49.394;11.136;2023-03-04T07:58:56;1.50;62.20
3198;DHT22;1611;49.394;11.136;2023-03-04T08:01:24;1.50;61.40
3198;DHT22;1611;49.394;11.136;2023-03-04T08:03:52;1.60;61.30
3198;DHT22;1611;49.394;11.136;2023-03-04T08:06:20;1.70;61.10
3198;DHT22;1611;49.394;11.136;2023-03-04T08:08:47;1.80;60.80
3198;DHT22;1611;49.394;11.136;2023-03-04T08:11:17;1.80;60.10
3198;DHT22;1611;49.394;11.136;2023-03-04T08:13:44;1.70;59.90
3198;DHT22;1611;49.394;11.136;2023-03-04T08:16:13;1.80;59.90
3198;DHT22;1611;49.394;11.136;2023-03-04T08:18:41;1.90;59.60
3198;DHT22;1611;49.394;11.136;2023-03-04T08:21:09;1.90;59.10
3198;DHT22;1611;49.394;11.136;2023-03-04T08:23:37;2.00;58.60
3198;DHT22;1611;49.394;11.136;2023-03-04T08:26:07;2.00;58.50
3198;DHT22;1611;49.394;11.136;2023-03-04T08:28:35;2.00;58.20
3198;DHT22;1611;49.394;11.136;2023-03-04T08:31:02;2.10;57.90
3198;DHT22;1611;49.394;11.136;2023-03-04T08:33:30;2.10;58.10
3198;DHT22;1611;49.394;11.136;2023-03-04T08:35:57;2.10;57.80
3198;DHT22;1611;49.394;11.136;2023-03-04T08:38:24;2.10;56.90
3198;DHT22;1611;49.394;11.136;2023-03-04T08:40:51;2.20;56.50
3198;DHT22;1611;49.394;11.136;2023-03-04T08:43:18;2.30;56.50
3198;DHT22;1611;49.394;11.136;2023-03-04T08:45:48;2.30;56.00
3198;DHT22;1611;49.394;11.136;2023-03-04T08:48:15;2.40;55.50
3198;DHT22;1611;49.394;11.136;2023-03-04T08:50:42;2.40;54.10
3198;DHT22;1611;49.394;11.136;2023-03-04T08:53:09;2.40;55.10
3198;DHT22;1611;49.394;11.136;2023-03-04T08:55:37;2.40;54.40
3198;DHT22;1611;49.394;11.136;2023-03-04T08:58:05;2.50;53.30
3198;DHT22;1611;49.394;11.136;2023-03-04T09:00:32;2.50;53.70
3198;DHT22;1611;49.394;11.136;2023-03-04T09:03:00;2.60;53.30
3198;DHT22;1611;49.394;11.136;2023-03-04T09:05:28;2.60;53.20
3198;DHT22;1611;49.394;11.136;2023-03-04T09:07:56;2.50;52.40
3198;DHT22;1611;49.394;11.136;2023-03-04T09:10:23;2.60;52.70
3198;DHT22;1611;49.394;11.136;2023-03-04T09:12:50;2.70;52.50
3198;DHT22;1611;49.394;11.136;2023-03-04T09:15:17;2.70;52.50
3198;DHT22;1611;49.394;11.136;2023-03-04T09:17:44;2.60;52.60
3198;DHT22;1611;49.394;11.136;2023-03-04T09:20:12;2.70;52.80
3198;DHT22;1611;49.394;11.136;2023-03-04T09:22:40;2.70;53.10
3198;DHT22;1611;49.394;11.136;2023-03-04T09:25:09;2.70;52.70
3198;DHT22;1611;49.394;11.136;2023-03-04T09:27:36;2.90;52.40
3198;DHT22;1611;49.394;11.136;2023-03-04T09:30:04;2.90;52.60
3198;DHT22;1611;49.394;11.136;2023-03-04T09:32:30;3.00;52.20
3198;DHT22;1611;49.394;11.136;2023-03-04T09:34:57;3.00;51.50
3198;DHT22;1611;49.394;11.136;2023-03-04T09:37:25;2.90;51.50
3198;DHT22;1611;49.394;11.136;2023-03-04T09:39:52;2.90;51.60
3198;DHT22;1611;49.394;11.136;2023-03-04T09:42:24;3.00;52.00
3198;DHT22;1611;49.394;11.136;2023-03-04T09:44:53;3.00;52.30
3198;DHT22;1611;49.394;11.136;2023-03-04T09:47:21;3.10;51.50
3198;DHT22;1611;49.394;11.136;2023-03-04T09:49:53;3.20;52.30
3198;DHT22;1611;49.394;11.136;2023-03-04T09:52:32;3.20;51.20
3198;DHT22;1611;49.394;11.136;2023-03-04T09:55:11;3.20;50.80
3198;DHT22;1611;49.394;11.136;2023-03-04T09:57:49;3.30;50.10
3198;DHT22;1611;49.394;11.136;2023-03-04T10:00:18;3.30;49.50
3198;DHT22;1611;49.394;11.136;2023-03-04T10:03:03;3.30;48.90
3198;DHT22;1611;49.394;11.136;2023-03-04T10:05:32;3.40;49.20
3198;DHT22;1611;49.394;11.136;2023-03-04T10:08:19;3.40;49.00
3198;DHT22;1611;49.394;11.136;2023-03-04T10:10:51;3.40;48.70
3198;DHT22;1611;49.394;11.136;2023-03-04T10:13:25;3.50;48.00
3198;DHT22;1611;49.394;11.136;2023-03-04T10:15:58;3.50;48.10
3198;DHT22;1611;49.394;11.136;2023-03-04T10:18:30;3.60;47.80
3198;DHT22;1611;49.394;11.136;2023-03-04T10:21:01;3.70;48.10
3198;DHT22;1611;49.394;11.136;2023-03-04T10:23:33;3.70;47.90
3198;DHT22;1611;49.394;11.136;2023-03-04T10:26:11;3.70;47.90
3198;DHT22;1611;49.394;11.136;2023-03-04T10:28:38;3.90;47.80
3198;DHT22;1611;49.394;11.136;2023-03-04T10:31:11;3.80;47.30
3198;DHT22;1611;49.394;11.136;2023-03-04T10:33:40;3.90;47.00
3198;DHT22;1611;49.394;11.136;2023-03-04T10:36:22;4.00;46.80
3198;DHT22;1611;49.394;11.136;2023-03-04T10:38:55;4.00;46.30
3198;DHT22;1611;49.394;11.136;2023-03-04T10:41:24;4.10;46.40
3198;DHT22;1611;49.394;11.136;2023-03-04T10:44:00;4.00;46.50
3198;DHT22;1611;49.394;11.136;2023-03-04T10:46:28;4.00;46.70
3198;DHT22;1611;49.394;11.136;2023-03-04T10:48:55;4.00;46.70
3198;DHT22;1611;49.394;11.136;2023-03-04T10:51:23;4.00;46.10
3198;DHT22;1611;49.394;11.136;2023-03-04T10:53:57;4.00;46.30
3198;DHT22;1611;49.394;11.136;2023-03-04T10:56:33;4.00;46.70
3198;DHT22;1611;49.394;11.136;2023-03-04T10:59:33;4.20;46.20
3198;DHT22;1611;49.394;11.136;2023-03-04T11:02:12;4.10;45.70
3198;DHT22;1611;49.394;11.136;2023-03-04T11:04:40;4.20;45.30
3198;DHT22;1611;49.394;11.136;2023-03-04T11:07:08;4.20;45.70
3198;DHT22;1611;49.394;11.136;2023-03-04T11:09:37;4.20;45.30
3198;DHT22;1611;49.394;11.136;2023-03-04T11:12:11;4.30;45.30
3198;DHT22;1611;49.394;11.136;2023-03-04T11:14:40;4.20;44.50
3198;DHT22;1611;49.394;11.136;2023-03-04T11:17:22;4.20;44.80
3198;DHT22;1611;49.394;11.136;2023-03-04T11:19:54;4.30;44.80
3198;DHT22;1611;49.394;11.136;2023-03-04T11:22:23;4.30;44.60
3198;DHT22;1611;49.394;11.136;2023-03-04T11:24:57;4.30;44.40
3198;DHT22;1611;49.394;11.136;2023-03-04T11:27:37;4.30;43.60
3198;DHT22;1611;49.394;11.136;2023-03-04T11:30:28;4.30;43.60
3198;DHT22;1611;49.394;11.136;2023-03-04T11:33:07;4.30;44.00
3198;DHT22;1611;49.394;11.136;2023-03-04T11:35:41;4.30;44.00
3198;DHT22;1611;49.394;11.136;2023-03-04T11:38:15;4.40;43.40
3198;DHT22;1611;49.394;11.136;2023-03-04T11:40:46;4.30;43.80
3198;DHT22;1611;49.394;11.136;2023-03-04T11:43:18;4.30;44.10
3198;DHT22;1611;49.394;11.136;2023-03-04T11:46:00;4.30;44.10
3198;DHT22;1611;49.394;11.136;2023-03-04T11:48:39;4.40;43.60
3198;DHT22;1611;49.394;11.136;2023-03-04T11:51:11;4.50;42.80
3198;DHT22;1611;49.394;11.136;2023-03-04T11:53:46;4.50;42.40
3198;DHT22;1611;49.394;11.136;2023-03-04T11:56:29;4.40;41.70
3198;DHT22;1611;49.394;11.136;2023-03-04T12:02:11;4.50;42.80
3198;DHT22;1611;49.394;11.136;2023-03-04T12:05:03;4.70;41.20
3198;DHT22;1611;49.394;11.136;2023-03-04T12:07:45;4.70;41.00
3198;DHT22;1611;49.394;11.136;2023-03-04T12:10:21;4.80;40.60
3198;DHT22;1611;49.394;11.136;2023-03-04T12:15:48;4.70;41.00
3198;DHT22;1611;49.394;11.136;2023-03-04T12:18:35;4.60;41.30
3198;DHT22;1611;49.394;11.136;2023-03-04T12:21:12;4.70;41.80
3198;DHT22;1611;49.394;11.136;2023-03-04T12:26:42;4.60;41.90
3198;DHT22;1611;49.394;11.136;2023-03-04T12:29:19;4.60;42.10
3198;DHT22;1611;49.394;11.136;2023-03-04T12:31:51;4.60;41.80
3198;DHT22;1611;49.394;11.136;2023-03-04T12:34:41;4.50;41.90
3198;DHT22;1611;49.394;11.136;2023-03-04T12:37:19;4.50;42.30
3198;DHT22;1611;49.394;11.136;2023-03-04T12:40:13;4.50;42.40
3198;DHT22;1611;49.394;11.136;2023-03-04T12:42:54;4.40;41.70
3198;DHT22;1611;49.394;11.136;2023-03-04T12:45:29;4.40;42.40
3198;DHT22;1611;49.394;11.136;2023-03-04T12:48:04;4.50;42.40
3198;DHT22;1611;49.394;11.136;2023-03-04T12:50:40;4.40;42.40
3198;DHT22;1611;49.394;11.136;2023-03-04T12:53:18;4.40;42.50
3198;DHT22;1611;49.394;11.136;2023-03-04T12:55:47;4.40;42.90
3198;DHT22;1611;49.394;11.136;2023-03-04T12:58:17;4.40;42.60
3198;DHT22;1611;49.394;11.136;2023-03-04T13:00:52;4.40;42.10
3198;DHT22;1611;49.394;11.136;2023-03-04T13:03:26;4.50;42.10
3198;DHT22;1611;49.394;11.136;2023-03-04T13:06:12;4.50;42.20
3198;DHT22;1611;49.394;11.136;2023-03-04T13:08:53;4.40;41.30
3198;DHT22;1611;49.394;11.136;2023-03-04T13:11:44;4.40;41.90
3198;DHT22;1611;49.394;11.136;2023-03-04T13:14:29;4.60;42.70
3198;DHT22;1611;49.394;11.136;2023-03-04T13:16:59;4.50;42.30
3198;DHT22;1611;49.394;11.136;2023-03-04T13:19:45;4.50;42.50
3198;DHT22;1611;49.394;11.136;2023-03-04T13:22:41;4.50;43.00
3198;DHT22;1611;49.394;11.136;2023-03-04T13:25:31;4.50;43.10
3198;DHT22;1611;49.394;11.136;2023-03-04T13:28:20;4.60;43.00
3198;DHT22;1611;49.394;11.136;2023-03-04T13:31:12;4.60;42.60
3198;DHT22;1611;49.394;11.136;2023-03-04T13:33:56;4.70;43.60
3198;DHT22;1611;49.394;11.136;2023-03-04T13:36:32;4.70;42.90
3198;DHT22;1611;49.394;11.136;2023-03-04T13:39:01;4.70;42.40
3198;DHT22;1611;49.394;11.136;2023-03-04T13:41:30;4.80;42.20
3198;DHT22;1611;49.394;11.136;2023-03-04T13:43:58;4.90;42.40
3198;DHT22;1611;49.394;11.136;2023-03-04T13:46:38;4.90;42.40
3198;DHT22;1611;49.394;11.136;2023-03-04T13:49:15;4.90;41.60
3198;DHT22;1611;49.394;11.136;2023-03-04T13:51:43;5.00;42.40
3198;DHT22;1611;49.394;11.136;2023-03-04T13:54:14;4.90;41.90
3198;DHT22;1611;49.394;11.136;2023-03-04T13:56:42;4.80;41.60
3198;DHT22;1611;49.394;11.136;2023-03-04T13:59:20;4.80;42.60
3198;DHT22;1611;49.394;11.136;2023-03-04T14:01:56;4.90;42.60
3198;DHT22;1611;49.394;11.136;2023-03-04T14:04:32;5.00;42.70
3198;DHT22;1611;49.394;11.136;2023-03-04T14:07:01;5.00;42.50
3198;DHT22;1611;49.394;11.136;2023-03-04T14:09:30;5.00;41.40
3198;DHT22;1611;49.394;11.136;2023-03-04T14:11:58;5.00;42.40
3198;DHT22;1611;49.394;11.136;2023-03-04T14:14:30;4.90;42.80
3198;DHT22;1611;49.394;11.136;2023-03-04T14:17:00;4.80;43.00
3198;DHT22;1611;49.394;11.136;2023-03-04T14:19:30;4.80;43.00
3198;DHT22;1611;49.394;11.136;2023-03-04T14:21:58;4.80;43.40
3198;DHT22;1611;49.394;11.136;2023-03-04T14:24:25;4.80;43.00
3198;DHT22;1611;49.394;11.136;2023-03-04T14:27:06;4.70;43.00
3198;DHT22;1611;49.394;11.136;2023-03-04T14:29:36;4.80;43.70
3198;DHT22;1611;49.394;11.136;2023-03-04T14:32:04;4.70;43.70
3198;DHT22;1611;49.394;11.136;2023-03-04T14:34:35;4.60;43.90
3198;DHT22;1611;49.394;11.136;2023-03-04T14:37:03;4.60;44.60
3198;DHT22;1611;49.394;11.136;2023-03-04T14:39:42;4.50;45.00
3198;DHT22;1611;49.394;11.136;2023-03-04T14:42:11;4.50;45.60
3198;DHT22;1611;49.394;11.136;2023-03-04T14:44:41;4.50;45.40
3198;DHT22;1611;49.394;11.136;2023-03-04T14:47:15;4.60;45.10
3198;DHT22;1611;49.394;11.136;2023-03-04T14:49:46;4.60;45.40
3198;DHT22;1611;49.394;11.136;2023-03-04T14:52:34;4.60;45.40
3198;DHT22;1611;49.394;11.136;2023-03-04T14:55:19;4.70;45.50
3198;DHT22;1611;49.394;11.136;2023-03-04T14:57:49;4.70;45.00
3198;DHT22;1611;49.394;11.136;2023-03-04T15:00:29;4.70;45.30
3198;DHT22;1611;49.394;11.136;2023-03-04T15:02:58;4.70;45.10
3198;DHT22;1611;49.394;11.136;2023-03-04T15:05:28;4.70;45.20
3198;DHT22;1611;49.394;11.136;2023-03-04T15:07:57;4.60;45.00
3198;DHT22;1611;49.394;11.136;2023-03-04T15:10:26;4.70;45.00
3198;DHT22;1611;49.394;11.136;2023-03-04T15:12:55;4.80;44.80
3198;DHT22;1611;49.394;11.136;2023-03-04T15:15:36;4.70;45.20
3198;DHT22;1611;49.394;11.136;2023-03-04T15:18:15;4.70;45.40
3198;DHT22;1611;49.394;11.136;2023-03-04T15:20:52;4.70;45.20
3198;DHT22;1611;49.394;11.136;2023-03-04T15:23:18;4.60;45.10
3198;DHT22;1611;49.394;11.136;2023-03-04T15:25:45;4.50;45.00
3198;DHT22;1611;49.394;11.136;2023-03-04T15:28:17;4.60;46.00
3198;DHT22;1611;49.394;11.136;2023-03-04T15:30:44;4.50;45.40
3198;DHT22;1611;49.394;11.136;2023-03-04T15:33:11;4.40;46.00
3198;DHT22;1611;49.394;11.136;2023-03-04T15:35:40;4.50;46.50
3198;DHT22;1611;49.394;11.136;2023-03-04T15:38:11;4.50;46.20
3198;DHT22;1611;49.394;11.136;2023-03-04T15:40:40;4.50;46.00
3198;DHT22;1611;49.394;11.136;2023-03-04T15:43:10;4.50;45.90
3198;DHT22;1611;49.394;11.136;2023-03-04T15:45:39;4.40;46.90
3198;DHT22;1611;49.394;11.136;2023-03-04T15:48:07;4.30;47.00
3198;DHT22;1611;49.394;11.136;2023-03-04T15:50:35;4.40;47.10
3198;DHT22;1611;49.394;11.136;2023-03-04T15:53:06;4.30;47.20
3198;DHT22;1611;49.394;11.136;2023-03-04T15:55:35;4.30;47.00
3198;DHT22;1611;49.394;11.136;2023-03-04T15:58:02;4.30;47.60
3198;DHT22;1611;49.394;11.136;2023-03-04T16:00:29;4.30;47.60
3198;DHT22;1611;49.394;11.136;2023-03-04T16:02:56;4.30;47.80
3198;DHT22;1611;49.394;11.136;2023-03-04T16:05:23;4.30;47.70
3198;DHT22;1611;49.394;11.136;2023-03-04T16:07:51;4.30;47.50
3198;DHT22;1611;49.394;11.136;2023-03-04T16:10:21;4.30;47.80
3198;DHT22;1611;49.394;11.136;2023-03-04T16:12:54;4.30;48.00
3198;DHT22;1611;49.394;11.136;2023-03-04T16:15:23;4.40;48.50
3198;DHT22;1611;49.394;11.136;2023-03-04T16:17:50;4.30;47.50
3198;DHT22;1611;49.394;11.136;2023-03-04T16:20:19;4.20;47.50
3198;DHT22;1611;49.394;11.136;2023-03-04T16:22:48;4.30;47.30
3198;DHT22;1611;49.394;11.136;2023-03-04T16:25:17;4.30;47.80
3198;DHT22;1611;49.394;11.136;2023-03-04T16:27:44;4.30;47.30